»·PEaware :: UAL1122 KPDX-KPAE

UAL1122 :: KPDX-KPAE

FLIGHT INFORMATION

Flight Status: Arrived
Operator:
United Airlines
More flights by this operator :: More flights under this callsign
Pilot: Ben L. (6391)
Aircraft: BOEING 737-200
(B732)
More flights by this aircraft type
Origin: KPDX Portland Intl
United States
Destination: KPAE Paine Field/Snohomish Co.
United States
More flights between these airports :: More routes between these airports
Route: BTG OLM2
File this flight plan on PilotEdge
Remarks:
Altitude:
(Current/Filed)
22,000ft
Speed:
(Current/Filed)
450kts
Departed: 04-Oct-19 05:39 PM
Arrived: 04-Oct-19 06:19 PM
Distance/Time
Traveled:
139nm/0:40
Distance/Time
To Go:
Arrived

Flight Plot

Page will automatically refresh every two minutes.

Flight plan parsing failed; only flown route is shown


Map Options




Map Legend


Flown Route
Filed Route
Departure Airport
Arrival Airport
Navaid (VOR, NDB)
Fix

Horizontal Profiles

Position Reports

Time Latitude Longitude Heading Altitude Ground
Speed
04-Oct-19 17:13 45.590378 -122.598964 206 25ft 0kts
04-Oct-19 17:14 45.590378 -122.598964 206 25ft 0kts
04-Oct-19 17:15 45.590378 -122.598964 206 25ft 0kts
04-Oct-19 17:16 45.590378 -122.598964 206 25ft 0kts
04-Oct-19 17:17 45.590378 -122.598964 206 25ft 0kts
04-Oct-19 17:18 45.590378 -122.598964 206 25ft 0kts
04-Oct-19 17:19 45.590378 -122.598964 206 25ft 0kts
04-Oct-19 17:20 45.590378 -122.598964 206 25ft 0kts
04-Oct-19 17:21 45.590378 -122.598964 206 25ft 0kts
04-Oct-19 17:22 45.590378 -122.598964 206 25ft 0kts
04-Oct-19 17:23 45.590378 -122.598964 206 25ft 0kts
04-Oct-19 17:24 45.590378 -122.598964 206 25ft 0kts
04-Oct-19 17:25 45.590378 -122.598964 206 25ft 0kts
04-Oct-19 17:26 45.590378 -122.598964 206 25ft 0kts
04-Oct-19 17:27 45.590378 -122.598964 206 25ft 0kts
04-Oct-19 17:28 45.590374 -122.598967 206 25ft 0kts
04-Oct-19 17:29 45.590811 -122.598659 206 25ft 2kts
04-Oct-19 17:30 45.590879 -122.598611 206 25ft 0kts
04-Oct-19 17:31 45.590879 -122.598611 206 25ft 0kts
04-Oct-19 17:32 45.590721 -122.600745 245 25ft 5kts
04-Oct-19 17:33 45.590038 -122.600859 185 25ft 0kts
04-Oct-19 17:34 45.590001 -122.600894 227 25ft 0kts
04-Oct-19 17:35 45.587442 -122.598428 119 25ft 25kts
04-Oct-19 17:36 45.583713 -122.588954 118 25ft 28kts
04-Oct-19 17:37 45.580670 -122.584317 276 25ft 8kts
04-Oct-19 17:38 45.592042 -122.612889 302 294ft 163kts
04-Oct-19 17:39 45.617548 -122.674946 301 2407ft 199kts
04-Oct-19 17:40 45.648402 -122.754861 309 4510ft 249kts
04-Oct-19 17:41 45.715144 -122.779690 353 7751ft 262kts
04-Oct-19 17:42 45.791659 -122.786881 353 10441ft 289kts
04-Oct-19 17:43 45.878637 -122.791663 353 12588ft 326kts
04-Oct-19 17:44 45.969235 -122.795975 352 15367ft 329kts
04-Oct-19 17:45 46.061334 -122.803124 349 17687ft 334kts
04-Oct-19 17:46 46.143287 -122.813450 347 19517ft 338kts
04-Oct-19 17:47 46.236968 -122.827928 346 21393ft 343kts
04-Oct-19 17:48 46.333710 -122.841555 347 22303ft 370kts
04-Oct-19 17:49 46.443066 -122.852997 349 22301ft 416kts
04-Oct-19 17:50 46.562059 -122.861210 350 22289ft 422kts
04-Oct-19 17:51 46.676285 -122.870433 348 22288ft 400kts
04-Oct-19 17:52 46.785233 -122.882596 348 22279ft 379kts
04-Oct-19 17:53 46.883490 -122.892906 347 21187ft 341kts
04-Oct-19 17:54 46.979244 -122.902597 352 18772ft 348kts
04-Oct-19 17:55 47.060039 -122.822216 51 16827ft 369kts
04-Oct-19 17:56 47.118233 -122.708599 45 15169ft 356kts
04-Oct-19 17:58 47.189413 -122.611312 34 13476ft 341kts
04-Oct-19 17:59 47.261475 -122.532271 35 12645ft 306kts
04-Oct-19 18:00 47.332453 -122.473871 0 11100ft 294kts
04-Oct-19 18:01 47.413169 -122.472439 357 9632ft 288kts
04-Oct-19 18:02 47.491012 -122.472478 357 8120ft 270kts
04-Oct-19 18:03 47.564220 -122.472411 357 6892ft 259kts
04-Oct-19 18:04 47.636131 -122.472834 356 5663ft 256kts
04-Oct-19 18:05 47.707018 -122.473880 356 4462ft 252kts
04-Oct-19 18:06 47.777195 -122.475259 357 3260ft 250kts
04-Oct-19 18:07 47.843432 -122.476637 357 2937ft 219kts
04-Oct-19 18:08 47.901136 -122.477306 357 2964ft 205kts
04-Oct-19 18:09 47.961333 -122.477865 357 2990ft 222kts
04-Oct-19 18:10 48.024304 -122.478321 357 2987ft 227kts
04-Oct-19 18:11 48.084830 -122.477999 357 2470ft 208kts
04-Oct-19 18:12 48.131468 -122.460190 78 1967ft 173kts
04-Oct-19 18:13 48.127844 -122.388645 113 1996ft 184kts
04-Oct-19 18:14 48.086830 -122.338054 145 2007ft 194kts
04-Oct-19 18:15 48.045174 -122.295268 149 1979ft 173kts
04-Oct-19 18:16 47.997252 -122.287306 179 1996ft 171kts
04-Oct-19 18:16 47.960490 -122.286654 179 1330ft 143kts
04-Oct-19 18:18 47.915772 -122.285693 179 571ft 128kts
04-Oct-19 18:19 47.902098 -122.283517 89 570ft 3kts
04-Oct-19 18:19 47.902104 -122.282733 89 570ft 11kts
04-Oct-19 18:21 47.901293 -122.274947 203 570ft 6kts
04-Oct-19 18:21 47.901094 -122.275121 216 570ft 0kts
04-Oct-19 18:22 47.901094 -122.275121 216 570ft 0kts

Navigation Log

Ident Type
Flight plan parsing failed, navigation log unavailable